createdAt,value
2018-09-08T00:02:21.486Z,22.32
2018-09-08T00:04:50.839Z,22.12
2018-09-08T00:07:41.973Z,21.96
2018-09-08T00:10:11.789Z,21.65
2018-09-08T00:12:42.051Z,21.71
2018-09-08T00:15:18.864Z,21.81
2018-09-08T00:17:54.305Z,21.81
2018-09-08T00:20:28.643Z,21.44
2018-09-08T00:23:03.044Z,21.29
2018-09-08T00:25:40.154Z,21.25
2018-09-08T00:32:34.246Z,21.23
2018-09-08T00:35:04.656Z,20.90
2018-09-08T00:37:34.873Z,20.92
2018-09-08T00:40:05.163Z,20.84
2018-09-08T00:42:35.492Z,20.84
2018-09-08T00:45:06.299Z,20.83
2018-09-08T00:47:36.495Z,20.90
2018-09-08T00:50:05.997Z,20.92
2018-09-08T00:52:36.279Z,20.78
2018-09-08T00:55:05.566Z,20.75
2018-09-08T00:57:34.865Z,20.34
2018-09-08T01:00:05.761Z,20.29
2018-09-08T01:02:35.163Z,20.12
2018-09-08T01:05:06.819Z,19.98
2018-09-08T01:07:38.848Z,20.01
2018-09-08T01:10:10.399Z,19.97
2018-09-08T01:12:39.678Z,19.90
2018-09-08T01:15:11.665Z,19.96
2018-09-08T01:17:42.639Z,20.17
2018-09-08T01:20:12.148Z,20.08
2018-09-08T01:22:43.188Z,19.92
2018-09-08T01:25:15.267Z,19.83
2018-09-08T01:27:45.691Z,19.80
2018-09-08T01:30:15.605Z,19.92
2018-09-08T01:32:44.960Z,19.58
2018-09-08T01:35:14.741Z,19.67
2018-09-08T01:37:44.052Z,19.88
2018-09-08T01:40:16.120Z,19.39
2018-09-08T01:42:45.432Z,19.32
2018-09-08T01:45:16.123Z,19.50
2018-09-08T01:47:46.378Z,19.33
2018-09-08T01:50:15.781Z,19.17
2018-09-08T01:52:45.102Z,19.15
2018-09-08T01:55:14.484Z,19.08
2018-09-08T01:57:45.504Z,19.04
2018-09-08T02:00:16.224Z,18.98
2018-09-08T02:02:47.427Z,19.23
2018-09-08T02:05:19.421Z,19.21
2018-09-08T02:07:48.775Z,19.19
2018-09-08T02:10:19.877Z,19.14
2018-09-08T02:12:49.623Z,19.16
2018-09-08T02:15:21.550Z,18.96
2018-09-08T02:17:51.832Z,18.81
2018-09-08T02:20:21.827Z,18.83
2018-09-08T02:22:51.169Z,18.78
2018-09-08T02:25:22.381Z,18.68
2018-09-08T02:27:53.801Z,18.81
2018-09-08T02:30:26.309Z,18.70
2018-09-08T02:32:56.700Z,18.69
2018-09-08T02:35:27.440Z,18.62
2018-09-08T02:37:56.921Z,18.50
2018-09-08T02:40:27.646Z,18.43
2018-09-08T02:42:58.004Z,18.44
2018-09-08T02:45:28.281Z,18.46
2018-09-08T02:48:00.943Z,18.14
2018-09-08T02:50:31.460Z,18.23
2018-09-08T02:53:02.484Z,18.33
2018-09-08T02:55:31.706Z,18.21
2018-09-08T02:58:01.750Z,18.13
2018-09-08T03:00:30.961Z,18.30
2018-09-08T03:03:00.759Z,18.23
2018-09-08T03:05:28.995Z,18.36
2018-09-08T03:07:57.809Z,18.26
2018-09-08T03:10:25.746Z,18.24
2018-09-08T03:12:54.282Z,18.17
2018-09-08T03:15:25.657Z,18.14
2018-09-08T03:17:54.524Z,18.08
2018-09-08T03:20:23.331Z,18.10
2018-09-08T03:22:53.077Z,18.11
2018-09-08T03:25:21.159Z,18.08
2018-09-08T03:27:49.107Z,18.20
2018-09-08T03:30:18.022Z,18.24
2018-09-08T03:32:46.811Z,18.19
2018-09-08T03:35:15.661Z,18.22
2018-09-08T03:37:44.463Z,18.15
2018-09-08T03:40:12.371Z,18.10
2018-09-08T03:42:41.200Z,18.07
2018-09-08T03:45:09.164Z,18.18
2018-09-08T03:47:38.005Z,18.10
2018-09-08T03:50:05.963Z,18.06
2018-09-08T03:52:34.853Z,18.07
2018-09-08T03:55:03.619Z,17.94
2018-09-08T03:57:32.452Z,17.97
2018-09-08T04:00:01.304Z,17.93
2018-09-08T04:02:30.243Z,17.92
2018-09-08T04:05:01.182Z,17.93
2018-09-08T04:07:31.392Z,17.80
2018-09-08T04:10:04.553Z,17.75
2018-09-08T04:12:34.780Z,17.77
2018-09-08T04:15:04.142Z,17.74
2018-09-08T04:17:33.572Z,17.75
2018-09-08T04:20:03.824Z,17.98
2018-09-08T04:22:35.904Z,18.05
2018-09-08T04:25:07.608Z,17.79
2018-09-08T04:27:37.936Z,17.81
2018-09-08T04:30:08.215Z,17.79
2018-09-08T04:32:38.427Z,17.67
2018-09-08T04:35:08.664Z,17.80
2018-09-08T04:37:39.857Z,17.86
2018-09-08T04:40:10.084Z,17.87
2018-09-08T04:42:40.256Z,17.88
2018-09-08T04:45:09.977Z,17.99
2018-09-08T04:47:41.184Z,17.85
2018-09-08T04:50:11.526Z,17.69
2018-09-08T04:52:42.780Z,17.65
2018-09-08T04:55:13.211Z,17.69
2018-09-08T04:57:43.528Z,17.70
2018-09-08T05:00:15.352Z,17.78
2018-09-08T05:02:46.608Z,17.81
2018-09-08T05:05:16.951Z,17.80
2018-09-08T05:07:47.521Z,17.76
2018-09-08T05:10:17.800Z,17.83
2018-09-08T05:12:48.099Z,17.99
2018-09-08T05:15:19.291Z,18.06
2018-09-08T05:17:49.594Z,18.19
2018-09-08T05:20:19.814Z,18.10
2018-09-08T05:22:50.128Z,18.31
2018-09-08T05:25:20.319Z,18.95
2018-09-08T05:27:50.611Z,19.50
2018-09-08T05:30:23.420Z,19.95
2018-09-08T05:32:53.679Z,20.46
2018-09-08T05:35:25.007Z,20.78
2018-09-08T05:37:55.427Z,21.23
2018-09-08T05:40:26.821Z,21.71
2018-09-08T05:42:57.146Z,22.17
2018-09-08T05:45:28.548Z,22.58
2018-09-08T05:47:58.921Z,23.04
2018-09-08T05:50:29.094Z,23.45
2018-09-08T05:53:00.752Z,23.81
2018-09-08T05:55:31.412Z,24.08
2018-09-08T05:58:01.728Z,23.73
2018-09-08T06:00:32.958Z,24.85
2018-09-08T06:03:03.237Z,25.29
2018-09-08T06:05:36.091Z,25.90
2018-09-08T06:08:07.253Z,26.45
2018-09-08T06:10:37.994Z,26.71
2018-09-08T06:16:10.895Z,27.35
2018-09-08T06:18:40.248Z,27.39
2018-09-08T06:21:09.609Z,27.43
2018-09-08T06:23:40.748Z,27.84
2018-09-08T06:26:12.292Z,27.99
2018-09-08T06:28:42.693Z,27.77
2018-09-08T06:31:13.174Z,27.88
2018-09-08T06:33:43.495Z,28.12
2018-09-08T06:36:13.739Z,28.12
2018-09-08T06:38:44.898Z,28.14
2018-09-08T06:41:16.006Z,28.57
2018-09-08T06:43:48.108Z,28.88
2018-09-08T06:46:19.560Z,28.86
2018-09-08T06:48:50.702Z,28.98
2018-09-08T06:51:22.634Z,29.18
2018-09-08T06:53:55.087Z,28.74
2018-09-08T06:56:26.191Z,28.59
2018-09-08T06:58:57.288Z,28.81
2018-09-08T07:01:28.609Z,29.40
2018-09-08T07:04:00.656Z,29.24
2018-09-08T07:06:38.146Z,29.11
2018-09-08T07:09:10.656Z,29.03
2018-09-08T07:11:41.864Z,29.02
2018-09-08T07:14:13.082Z,29.56
2018-09-08T07:16:44.249Z,29.65
2018-09-08T07:19:15.415Z,29.28
2018-09-08T07:21:47.512Z,29.85
2018-09-08T07:24:18.602Z,29.90
2018-09-08T07:26:49.780Z,30.21
2018-09-08T07:29:21.007Z,30.55
2018-09-08T07:31:52.947Z,30.21
2018-09-08T07:34:24.052Z,30.20
2018-09-08T07:36:55.321Z,30.06
2018-09-08T07:39:29.036Z,29.82
2018-09-08T07:42:00.215Z,29.88
2018-09-08T07:44:31.964Z,29.64
2018-09-08T07:47:04.611Z,29.46
2018-09-08T07:49:36.113Z,29.53
2018-09-08T07:52:07.303Z,29.34
2018-09-08T07:54:38.389Z,29.18
2018-09-08T07:57:12.055Z,28.81
2018-09-08T07:59:43.371Z,28.54
2018-09-08T08:02:15.547Z,28.21
2018-09-08T08:04:46.673Z,27.87
2018-09-08T08:07:17.848Z,27.75
2018-09-08T08:09:50.116Z,27.58
2018-09-08T08:12:23.211Z,27.89
2018-09-08T08:14:54.549Z,27.91
2018-09-08T08:17:25.669Z,28.21
2018-09-08T08:19:58.411Z,27.94
2018-09-08T08:22:29.561Z,27.97
2018-09-08T08:25:00.671Z,27.91
2018-09-08T08:27:31.801Z,27.62
2018-09-08T08:30:03.240Z,27.05
2018-09-08T08:32:35.015Z,26.96
2018-09-08T08:35:06.239Z,27.25
2018-09-08T08:37:37.338Z,27.14
2018-09-08T08:40:08.484Z,26.86
2018-09-08T08:42:39.603Z,26.89
2018-09-08T08:45:12.570Z,27.15
2018-09-08T08:47:43.691Z,27.78
2018-09-08T08:50:25.816Z,28.20
2018-09-08T08:55:11.344Z,28.64
2018-09-08T08:57:42.692Z,27.48
2018-09-08T09:00:16.095Z,27.03
2018-09-08T09:02:47.855Z,27.87
2018-09-08T09:05:20.696Z,28.16
2018-09-08T09:07:53.725Z,28.26
2018-09-08T09:10:26.798Z,28.07
2018-09-08T09:12:59.708Z,27.71
2018-09-08T09:15:31.425Z,26.76
2018-09-08T09:18:02.442Z,26.63
2018-09-08T09:22:48.585Z,27.07
2018-09-08T09:25:19.054Z,27.42
2018-09-08T09:27:51.247Z,27.56
2018-09-08T09:30:26.193Z,27.17
2018-09-08T09:32:57.352Z,27.60
2018-09-08T09:35:29.246Z,27.50
2018-09-08T09:38:00.381Z,28.29
2018-09-08T09:40:31.470Z,27.89
2018-09-08T09:43:02.644Z,27.94
2018-09-08T09:45:33.788Z,27.68
2018-09-08T09:48:04.972Z,27.80
2018-09-08T09:50:36.092Z,28.15
2018-09-08T09:53:07.291Z,28.46
2018-09-08T09:55:38.403Z,28.47
2018-09-08T09:58:10.119Z,28.73
2018-09-08T10:00:46.374Z,29.23
2018-09-08T10:03:19.491Z,29.20
2018-09-08T10:05:50.612Z,29.03
2018-09-08T10:08:21.754Z,29.58
2018-09-08T10:10:53.628Z,29.83
2018-09-08T10:13:24.756Z,29.85
2018-09-08T10:15:56.819Z,30.06
2018-09-08T10:18:29.281Z,30.01
2018-09-08T10:21:00.463Z,29.53
2018-09-08T10:23:32.283Z,29.29
2018-09-08T10:26:03.605Z,29.60
2018-09-08T10:28:34.792Z,29.56
2018-09-08T10:31:07.503Z,29.63
2018-09-08T10:33:39.894Z,29.79
2018-09-08T10:36:11.309Z,29.82
2018-09-08T10:38:42.473Z,29.61
2018-09-08T10:41:13.671Z,29.44
2018-09-08T10:43:44.924Z,29.94
2018-09-08T10:46:21.234Z,30.49
2018-09-08T10:48:52.372Z,30.95
2018-09-08T10:52:05.193Z,31.06
2018-09-08T10:54:36.967Z,30.53
2018-09-08T10:57:08.453Z,30.22
2018-09-08T10:59:41.036Z,30.43
2018-09-08T11:02:12.391Z,30.82
2018-09-08T11:04:43.568Z,30.89
2018-09-08T11:07:14.783Z,31.31
2018-09-08T11:09:46.593Z,31.54
2018-09-08T11:12:17.719Z,31.64
2018-09-08T11:14:49.858Z,31.33
2018-09-08T11:17:21.521Z,31.23
2018-09-08T11:19:54.899Z,31.50
2018-09-08T11:22:26.046Z,31.60
2018-09-08T11:24:57.234Z,31.46
2018-09-08T11:27:28.441Z,31.63
2018-09-08T11:29:59.639Z,31.10
2018-09-08T11:32:30.775Z,31.32
2018-09-08T11:35:02.983Z,31.69
2018-09-08T11:37:34.176Z,31.38
2018-09-08T11:40:05.350Z,31.19
2018-09-08T11:42:36.551Z,31.01
2018-09-08T11:45:08.311Z,31.10
2018-09-08T11:47:39.427Z,31.28
2018-09-08T11:50:12.111Z,31.29
2018-09-08T11:52:45.219Z,31.72
2018-09-08T11:55:16.607Z,31.90
2018-09-08T11:57:48.345Z,32.00
2018-09-08T12:00:21.330Z,31.87
2018-09-08T12:02:52.529Z,31.86
2018-09-08T12:05:24.842Z,31.43
2018-09-08T12:07:56.221Z,31.37
2018-09-08T12:10:30.446Z,31.19
2018-09-08T12:13:04.711Z,31.33
2018-09-08T12:15:38.302Z,31.75
2018-09-08T12:18:10.165Z,31.82
2018-09-08T12:20:41.665Z,31.63
2018-09-08T12:23:14.157Z,31.70
2018-09-08T12:25:45.453Z,31.51
2018-09-08T12:28:16.652Z,31.60
2018-09-08T12:30:48.854Z,31.75
2018-09-08T12:33:20.104Z,31.81
2018-09-08T12:35:53.857Z,31.91
2018-09-08T12:38:27.102Z,32.03
2018-09-08T12:40:58.339Z,32.10
2018-09-08T12:43:32.081Z,32.26
2018-09-08T12:46:04.395Z,32.33
2018-09-08T12:48:36.328Z,32.39
2018-09-08T12:51:09.476Z,32.70
2018-09-08T12:53:41.481Z,32.53
2018-09-08T12:56:12.797Z,32.12
2018-09-08T12:58:44.158Z,32.34
2018-09-08T13:01:15.880Z,32.53
2018-09-08T13:03:48.427Z,32.72
2018-09-08T13:06:19.608Z,32.85
2018-09-08T13:08:50.783Z,32.81
2018-09-08T13:11:21.947Z,32.54
2018-09-08T13:13:54.511Z,32.17
2018-09-08T13:16:25.615Z,32.39
2018-09-08T13:18:56.759Z,32.48
2018-09-08T13:21:30.330Z,32.44
2018-09-08T13:24:01.486Z,31.63
2018-09-08T13:26:33.621Z,31.73
2018-09-08T13:29:05.788Z,31.80
2018-09-08T13:31:37.613Z,32.30
2018-09-08T13:34:08.803Z,32.39
2018-09-08T13:36:43.560Z,32.71
2018-09-08T13:39:15.600Z,32.72
2018-09-08T13:41:48.242Z,32.43
2018-09-08T13:44:19.381Z,32.14
2018-09-08T13:46:50.578Z,32.26
2018-09-08T13:49:24.679Z,32.54
2018-09-08T13:51:58.828Z,32.57
2018-09-08T13:54:29.929Z,32.45
2018-09-08T13:57:01.439Z,32.45
2018-09-08T13:59:32.650Z,32.42
2018-09-08T14:02:03.832Z,32.85
2018-09-08T14:04:35.061Z,33.33
2018-09-08T14:07:08.590Z,33.01
2018-09-08T14:09:39.800Z,32.79
2018-09-08T14:12:11.205Z,32.68
2018-09-08T14:14:42.550Z,33.06
2018-09-08T14:17:13.709Z,33.31
2018-09-08T14:19:44.837Z,33.10
2018-09-08T14:22:16.917Z,33.08
2018-09-08T14:24:50.573Z,32.70
2018-09-08T14:27:23.009Z,32.70
2018-09-08T14:29:54.673Z,32.73
2018-09-08T14:32:25.794Z,32.48
2018-09-08T14:34:58.103Z,32.58
2018-09-08T14:37:29.213Z,32.85
2018-09-08T14:40:00.410Z,32.91
2018-09-08T14:42:31.528Z,33.29
2018-09-08T14:45:03.881Z,33.11
2018-09-08T14:47:34.995Z,33.04
2018-09-08T14:50:06.457Z,33.19
2018-09-08T14:52:37.647Z,33.31
2018-09-08T14:55:08.776Z,32.87
2018-09-08T14:57:41.265Z,32.22
2018-09-08T15:00:14.132Z,32.04
2018-09-08T15:02:46.296Z,31.98
2018-09-08T15:05:17.434Z,32.12
2018-09-08T15:07:48.735Z,31.94
2018-09-08T15:10:19.160Z,31.63
2018-09-08T15:12:50.264Z,31.61
2018-09-08T15:15:24.307Z,31.81
2018-09-08T15:17:55.458Z,31.57
2018-09-08T15:20:27.276Z,31.68
2018-09-08T15:22:58.505Z,32.02
2018-09-08T15:25:29.663Z,31.85
2018-09-08T15:28:01.466Z,31.66
2018-09-08T15:30:33.382Z,31.77
2018-09-08T15:33:08.210Z,31.78
2018-09-08T15:35:39.359Z,31.90
2018-09-08T15:38:10.435Z,32.04
2018-09-08T15:40:41.568Z,32.00
2018-09-08T15:43:12.719Z,31.99
2018-09-08T15:45:43.964Z,31.93
2018-09-08T15:48:15.250Z,31.86
2018-09-08T15:50:47.239Z,31.87
2018-09-08T15:53:18.417Z,31.95
2018-09-08T15:55:50.876Z,31.95
2018-09-08T15:58:22.932Z,31.80
2018-09-08T16:00:54.239Z,31.83
2018-09-08T16:03:25.512Z,31.91
2018-09-08T16:05:57.372Z,31.71
2018-09-08T16:08:28.501Z,31.64
2018-09-08T16:10:59.833Z,31.18
2018-09-08T16:13:31.207Z,30.54
2018-09-08T16:16:02.606Z,30.18
2018-09-08T16:18:34.579Z,30.14
2018-09-08T16:21:05.845Z,30.29
2018-09-08T16:23:36.956Z,30.56
2018-09-08T16:26:09.427Z,30.54
2018-09-08T16:28:40.630Z,30.70
2018-09-08T16:31:12.762Z,30.93
2018-09-08T16:33:43.913Z,30.86
2018-09-08T16:36:18.778Z,30.82
2018-09-08T16:38:50.073Z,30.72
2018-09-08T16:41:21.358Z,30.70
2018-09-08T16:43:53.971Z,30.48
2018-09-08T16:46:25.164Z,30.45
2018-09-08T16:48:56.328Z,30.42
2018-09-08T16:51:29.384Z,30.45
2018-09-08T16:54:00.536Z,30.63
2018-09-08T16:56:31.741Z,30.38
2018-09-08T16:59:02.888Z,30.44
2018-09-08T17:01:35.677Z,30.18
2018-09-08T17:04:06.853Z,30.74
2018-09-08T17:06:40.274Z,30.65
2018-09-08T17:09:11.828Z,30.59
2018-09-08T17:11:43.000Z,30.42
2018-09-08T17:14:14.942Z,30.22
2018-09-08T17:16:46.052Z,30.15
2018-09-08T17:19:18.408Z,30.28
2018-09-08T17:21:50.573Z,30.13
2018-09-08T17:24:23.049Z,30.07
2018-09-08T17:26:55.632Z,30.13
2018-09-08T17:29:27.484Z,30.08
2018-09-08T17:31:59.612Z,29.95
2018-09-08T17:34:31.912Z,29.84
2018-09-08T17:37:04.050Z,29.94
2018-09-08T17:39:35.167Z,29.93
2018-09-08T17:42:06.382Z,29.97
2018-09-08T17:44:37.536Z,30.00
2018-09-08T17:47:08.872Z,29.82
2018-09-08T17:49:44.464Z,29.90
2018-09-08T17:52:16.431Z,29.71
2018-09-08T17:54:49.724Z,29.75
2018-09-08T17:57:22.501Z,29.73
2018-09-08T17:59:54.389Z,29.60
2018-09-08T18:02:25.583Z,29.77
2018-09-08T18:04:57.600Z,29.68
2018-09-08T18:07:29.795Z,29.45
2018-09-08T18:10:03.221Z,29.22
2018-09-08T18:12:34.454Z,29.25
2018-09-08T18:15:06.394Z,29.14
2018-09-08T18:17:38.128Z,29.34
2018-09-08T18:20:10.500Z,29.15
2018-09-08T18:22:41.651Z,29.38
2018-09-08T18:25:13.658Z,29.39
2018-09-08T18:27:44.836Z,29.31
2018-09-08T18:30:18.478Z,29.20
2018-09-08T18:32:50.417Z,29.36
2018-09-08T18:35:22.525Z,28.81
2018-09-08T18:37:55.428Z,29.39
2018-09-08T18:40:27.382Z,29.13
2018-09-08T18:43:03.399Z,29.14
2018-09-08T18:45:34.740Z,28.99
2018-09-08T18:48:05.925Z,28.90
2018-09-08T18:50:37.238Z,29.09
2018-09-08T18:53:09.605Z,29.23
2018-09-08T18:55:41.381Z,29.21
2018-09-08T18:58:13.325Z,29.04
2018-09-08T19:00:45.008Z,28.90
2018-09-08T19:03:17.101Z,28.88
2018-09-08T19:05:50.492Z,28.87
2018-09-08T19:08:21.677Z,28.65
2018-09-08T19:10:52.503Z,28.61
2018-09-08T19:13:24.589Z,28.57
2018-09-08T19:15:56.860Z,28.59
2018-09-08T19:18:27.134Z,28.54
2018-09-08T19:20:59.380Z,28.57
2018-09-08T19:23:30.449Z,28.65
2018-09-08T19:26:02.322Z,28.80
2018-09-08T19:28:33.411Z,28.83
2018-09-08T19:31:06.535Z,28.92
2018-09-08T19:33:36.777Z,28.57
2018-09-08T19:36:09.700Z,28.35
2018-09-08T19:38:42.123Z,28.38
2018-09-08T19:41:16.943Z,28.39
2018-09-08T19:43:48.225Z,28.43
2018-09-08T19:46:25.363Z,28.33
2018-09-08T19:48:57.261Z,28.37
2018-09-08T19:51:30.898Z,28.16
2018-09-08T19:54:02.919Z,27.85
2018-09-08T19:56:39.840Z,27.96
2018-09-08T19:59:13.478Z,28.06
2018-09-08T20:01:45.373Z,28.20
2018-09-08T20:04:17.288Z,28.05
2018-09-08T20:06:48.353Z,27.80
2018-09-08T20:09:22.785Z,27.60
2018-09-08T20:11:54.591Z,27.16
2018-09-08T20:14:25.780Z,27.20
2018-09-08T20:16:59.397Z,27.27
2018-09-08T20:19:32.556Z,27.01
2018-09-08T20:22:06.204Z,26.96
2018-09-08T20:24:39.220Z,27.06
2018-09-08T20:27:11.300Z,27.14
2018-09-08T20:29:43.588Z,27.07
2018-09-08T20:32:15.512Z,27.11
2018-09-08T20:35:08.287Z,27.18
2018-09-08T20:37:55.902Z,27.12
2018-09-08T20:40:28.250Z,27.14
2018-09-08T20:43:00.274Z,27.02
2018-09-08T20:45:46.594Z,26.97
2018-09-08T20:48:19.421Z,26.96
2018-09-08T20:50:57.322Z,27.02
2018-09-08T20:53:27.697Z,27.05
2018-09-08T20:55:58.773Z,27.09
2018-09-08T20:58:30.807Z,27.04
2018-09-08T21:01:03.536Z,27.04
2018-09-08T21:03:35.104Z,26.95
2018-09-08T21:06:07.258Z,26.88
2018-09-08T21:08:38.935Z,26.83
2018-09-08T21:11:11.449Z,26.75
2018-09-08T21:13:42.574Z,26.69
2018-09-08T21:16:14.704Z,26.66
2018-09-08T21:18:44.989Z,26.58
2018-09-08T21:21:17.037Z,26.41
2018-09-08T21:23:49.205Z,26.43
2018-09-08T21:26:20.224Z,26.42
2018-09-08T21:28:52.480Z,26.60
2018-09-08T21:31:22.697Z,26.61
2018-09-08T21:33:52.990Z,26.54
2018-09-08T21:36:24.566Z,26.44
2018-09-08T21:38:55.888Z,26.32
2018-09-08T21:41:27.654Z,26.23
2018-09-08T21:43:57.639Z,25.47
2018-09-08T21:46:29.056Z,25.92
2018-09-08T21:48:59.266Z,25.84
2018-09-08T21:51:31.992Z,25.85
2018-09-08T21:54:06.388Z,25.76
2018-09-08T21:56:35.717Z,25.65
2018-09-08T21:59:06.585Z,25.65
2018-09-08T22:01:38.452Z,25.66
2018-09-08T22:04:09.467Z,25.70
2018-09-08T22:06:40.812Z,25.74
2018-09-08T22:09:11.311Z,25.74
2018-09-08T22:11:45.314Z,25.74
2018-09-08T22:14:16.556Z,25.91
2018-09-08T22:16:48.751Z,25.83
2018-09-08T22:19:19.820Z,25.99
2018-09-08T22:21:51.918Z,25.80
2018-09-08T22:24:22.361Z,25.73
2018-09-08T22:26:55.090Z,24.90
2018-09-08T22:29:29.121Z,25.54
2018-09-08T22:32:00.369Z,24.78
2018-09-08T22:34:30.706Z,25.33
2018-09-08T22:37:02.515Z,25.34
2018-09-08T22:39:38.584Z,25.42
2018-09-08T22:42:09.000Z,25.35
2018-09-08T22:44:40.813Z,25.26
2018-09-08T22:47:12.791Z,25.18
2018-09-08T22:49:45.010Z,25.05
2018-09-08T22:52:16.237Z,25.09
2018-09-08T22:54:47.592Z,25.13
2018-09-08T22:57:17.907Z,25.11
2018-09-08T22:59:50.417Z,25.09
2018-09-08T23:02:24.147Z,25.14
2018-09-08T23:04:55.813Z,25.17
2018-09-08T23:07:26.948Z,25.16
2018-09-08T23:10:00.244Z,25.08
2018-09-08T23:12:34.077Z,24.88
2018-09-08T23:15:08.102Z,24.83
2018-09-08T23:17:39.287Z,24.96
2018-09-08T23:20:09.648Z,24.98
2018-09-08T23:22:41.021Z,24.97
2018-09-08T23:25:11.521Z,24.87
2018-09-08T23:27:42.549Z,24.83
2018-09-08T23:30:14.308Z,24.82
2018-09-08T23:32:45.430Z,24.59
2018-09-08T23:35:16.547Z,24.66
2018-09-08T23:37:48.575Z,24.70
2018-09-08T23:40:19.620Z,24.77
2018-09-08T23:42:50.480Z,24.82
2018-09-08T23:45:24.356Z,24.68
2018-09-08T23:47:54.560Z,24.43
2018-09-08T23:50:25.013Z,24.45
2018-09-08T23:52:56.393Z,24.29
2018-09-08T23:55:26.635Z,24.14
2018-09-08T23:57:57.051Z,23.97
